Terminal Aerodrome Forecast
Issued by NWS Upton, NY

Home | Current Version | Previous Version | Text Only | Print | Product List | Glossary On
Versions: 1 2 3 4 5 6 7 8 9 10 11 12 13 14 15 16 17 18 19 20 21 22 23 24 25 26 27 28 29 30 31 32 33 34 35 36
472
FTUS41 KOKX 302328
TAFJFK
TAF
KJFK 302328Z 3100/0106 18009KT P6SM FEW060 BKN100
     FM310200 15006KT P6SM VCSH BKN050
     FM310800 11009KT 5SM -RA OVC015
     FM311400 11015G20KT 2SM -RA OVC006
     FM311800 09018G27KT 2SM RA OVC004
     FM312300 09020G28KT 1SM RA OVC004=

USA.gov is the U.S. government's official web portal to all federal, state and local government web resources and services.